EGTD weather

Dunsfold Aerodrome
Dunsfold, England, United Kingdom

Public forecast

Using degrees Celsius for public forecast. Weather courtesy of forecast.io.

Closest aviation weather report (METAR) to Dunsfold Aerodrome

Closest report is Farnborough Airport, 13.1 nm (24.3 km) NW. Retrieved 2020/06/01 01:20 UTC (38 minutes ago):

EGLF 010120Z AUTO 02005KT 350V050 9999 NCD 13/06 Q1023

Closest aviation forecast (TAF) to Dunsfold Aerodrome

Forecast is more than 12 hours old.

Closest forecast is Farnborough Airport, 13.1 nm (24.3 km) NW. Retrieved 2016/04/18 18:00 UTC (4 years ago):

TAF EGLF 181658Z 1818/1821 26008KT 9999 BKN040